Time;durP1;ratioP1;P1;durP2;ratioP2;P2;SDS_P1;SDS_P2;PMS_P1;PMS_P2;Temp;Humidity;BMP_temperature;BMP_pressure;BME280_temperature;BME280_humidity;BME280_pressure;Samples;Min_cycle;Max_cycle;Signal;HPM_P1;HPM_P2
2022/05/16 00:03:56;;;;;;;;;;;;;;;16.72;49.91406;101542.6;;;;-83
2022/05/16 00:08:57;;;;;;;;;;;;;;;16.66;50.00879;101529.2;;;;-79
2022/05/16 00:13:56;;;;;;;;;;;;;;;16.64;49.76855;101527.5;;;;-85
2022/05/16 00:18:56;;;;;;;;;;;;;;;16.58;49.98926;101519;;;;-81
2022/05/16 00:24:02;;;;;;;;;;;;;;;16.56;50.04297;101520.8;;;;-82
2022/05/16 00:28:28;;;;;;;6.4;2.1;;;;;;;;;;;;;-83
2022/05/16 00:28:56;;;;;;;;;;;;;;;16.5;50.2168;101517.8;;;;-83
2022/05/16 00:33:56;;;;;;;;;;;;;;;16.48;50;101508.4;;;;-81
2022/05/16 00:38:56;;;;;;;;;;;;;;;16.43;49.92676;101518.6;;;;-82
2022/05/16 00:43:58;;;;;;;;;;;;;;;16.39;50.1709;101507.7;;;;-83
2022/05/16 00:48:58;;;;;;;;;;;;;;;16.33;50.1416;101508;;;;-81
2022/05/16 00:53:58;;;;;;;;;;;;;;;16.29;50.30664;101498.9;;;;-83
2022/05/16 00:58:30;;;;;;;6;2;;;;;;;;;;;;;-82
2022/05/16 00:59:01;;;;;;;;;;;;;;;16.25;50.14355;101494.1;;;;-82
2022/05/16 01:08:56;;;;;;;;;;;;;;;16.17;50.19141;101477;;;;-79
2022/05/16 01:13:56;;;;;;;;;;;;;;;16.12;50.25391;101473.6;;;;-82
2022/05/16 01:18:56;;;;;;;;;;;;;;;16.08;50.10254;101469.4;;;;-82
2022/05/16 01:23:59;;;;;;;;;;;;;;;16.02;49.95898;101461;;;;-81
2022/05/16 01:28:35;;;;;;;6.5;2;;;;;;;;;;;;;-83
2022/05/16 01:28:57;;;;;;;;;;;;;;;15.98;50.10254;101454.3;;;;-83
2022/05/16 01:33:56;;;;;;;;;;;;;;;15.94;50.28906;101447.7;;;;-81
2022/05/16 01:38:57;;;;;;;;;;;;;;;15.89;50.30566;101445;;;;-83
2022/05/16 01:43:58;;;;;;;;;;;;;;;15.84;50.1875;101428.8;;;;-82
2022/05/16 01:48:56;;;;;;;;;;;;;;;15.81;50.55762;101422.1;;;;-81
2022/05/16 01:53:57;;;;;;;;;;;;;;;15.77;50.95898;101412.8;;;;-81
2022/05/16 01:58:34;;;;;;;8.8;2;;;;;;;;;;;;;-82
2022/05/16 01:58:56;;;;;;;;;;;;;;;15.74;50.36816;101405.3;;;;-84
2022/05/16 02:04:02;;;;;;;;;;;;;;;15.7;50.51074;101400.6;;;;-80
2022/05/16 02:08:56;;;;;;;;;;;;;;;15.68;50.40625;101403.3;;;;-83
2022/05/16 02:13:57;;;;;;;;;;;;;;;15.62;50.58105;101389.2;;;;-81
2022/05/16 02:18:56;;;;;;;;;;;;;;;15.6;50.69043;101384.7;;;;-81
2022/05/16 02:28:36;;;;;;;7.9;2.3;;;;;;;;;;;;;-81
2022/05/16 02:28:56;;;;;;;;;;;;;;;15.52;50.9082;101375.1;;;;-80
2022/05/16 02:33:57;;;;;;;;;;;;;;;15.49;50.97168;101374.5;;;;-83
2022/05/16 02:38:56;;;;;;;;;;;;;;;15.43;51.0332;101360.9;;;;-81
2022/05/16 02:43:56;;;;;;;;;;;;;;;15.39;51.0498;101356.1;;;;-81
2022/05/16 02:48:56;;;;;;;;;;;;;;;15.35;51.40723;101355;;;;-81
2022/05/16 02:53:57;;;;;;;;;;;;;;;15.31;51.34668;101360.2;;;;-83
2022/05/16 02:58:38;;;;;;;8;2.5;;;;;;;;;;;;;-81
2022/05/16 02:58:56;;;;;;;;;;;;;;;15.27;51.46582;101358.2;;;;-79
2022/05/16 03:04:02;;;;;;;;;;;;;;;15.25;51.10156;101351.1;;;;-83
2022/05/16 03:09:02;;;;;;;;;;;;;;;15.21;51.22168;101342.5;;;;-83
2022/05/16 03:14:05;;;;;;;;;;;;;;;15.18;51.31934;101345.6;;;;-83
2022/05/16 03:18:59;;;;;;;;;;;;;;;15.14;52.16113;101341;;;;-82
2022/05/16 03:23:56;;;;;;;;;;;;;;;15.11;51.95313;101337.2;;;;-81
2022/05/16 03:28:39;;;;;;;6;2.5;;;;;;;;;;;;;-81
2022/05/16 03:28:59;;;;;;;;;;;;;;;15.08;51.74805;101334.7;;;;-81
2022/05/16 03:33:57;;;;;;;;;;;;;;;15.05;51.86816;101337.7;;;;-81
2022/05/16 03:44:00;;;;;;;;;;;;;;;15.01;52.17969;101328.4;;;;-80
2022/05/16 03:48:56;;;;;;;;;;;;;;;14.99;52.58301;101325;;;;-81
2022/05/16 03:53:57;;;;;;;;;;;;;;;14.99;52.74121;101321.9;;;;-80
2022/05/16 03:58:43;;;;;;;7.6;2.8;;;;;;;;;;;;;-79
2022/05/16 03:58:57;;;;;;;;;;;;;;;14.96;52.79395;101311.6;;;;-82
2022/05/16 04:03:56;;;;;;;;;;;;;;;14.96;53.39063;101320.7;;;;-81
2022/05/16 04:08:56;;;;;;;;;;;;;;;14.94;53.33105;101305.9;;;;-80
2022/05/16 04:13:56;;;;;;;;;;;;;;;14.94;53.00488;101303.7;;;;-82
2022/05/16 04:18:59;;;;;;;;;;;;;;;14.93;53.5332;101286.1;;;;-81
2022/05/16 04:24:01;;;;;;;;;;;;;;;14.94;53.32031;101283;;;;-82
2022/05/16 04:28:43;;;;;;;7.1;2.7;;;;;;;;;;;;;-80
2022/05/16 04:28:57;;;;;;;;;;;;;;;14.95;54.08887;101314.5;;;;-82
2022/05/16 04:34:06;;;;;;;;;;;;;;;14.98;53.76465;101303.5;;;;-82
2022/05/16 04:38:59;;;;;;;;;;;;;;;15.01;53.49805;101327.5;;;;-83
2022/05/16 04:43:59;;;;;;;;;;;;;;;15.05;53.9082;101312.6;;;;-83
2022/05/16 04:48:59;;;;;;;;;;;;;;;15.13;53.20801;101315.6;;;;-81
2022/05/16 04:53:56;;;;;;;;;;;;;;;15.23;53.32129;101317.6;;;;-84
2022/05/16 04:58:45;;;;;;;8.6;2.7;;;;;;;;;;;;;-82
2022/05/16 04:59:00;;;;;;;;;;;;;;;15.34;53.61719;101325.5;;;;-82
2022/05/16 05:03:57;;;;;;;;;;;;;;;15.48;52.80957;101325.8;;;;-83
2022/05/16 05:08:59;;;;;;;;;;;;;;;15.58;52.80078;101327.8;;;;-84
2022/05/16 05:18:57;;;;;;;;;;;;;;;15.74;52.36719;101328.8;;;;-81
2022/05/16 05:23:57;;;;;;;;;;;;;;;15.83;52.69434;101322.4;;;;-83
2022/05/16 05:28:46;;;;;;;8.6;2.9;;;;;;;;;;;;;-81
2022/05/16 05:28:59;;;;;;;;;;;;;;;15.96;52.03223;101308.3;;;;-81
2022/05/16 05:33:59;;;;;;;;;;;;;;;16.39;51.69922;101291.2;;;;-84
2022/05/16 05:39:01;;;;;;;;;;;;;;;16.99;50.60156;101279.5;;;;-84
2022/05/16 05:43:59;;;;;;;;;;;;;;;17.69;49.35449;101289.8;;;;-82
2022/05/16 05:48:57;;;;;;;;;;;;;;;18.32;48.45801;101299.2;;;;-81
2022/05/16 05:53:59;;;;;;;;;;;;;;;18.89;47.41602;101305;;;;-83
2022/05/16 05:58:50;;;;;;;8;2.9;;;;;;;;;;;;;-82
2022/05/16 05:59:03;;;;;;;;;;;;;;;19.46;46.55273;101298.3;;;;-82
2022/05/16 06:03:58;;;;;;;;;;;;;;;20.12;45.94824;101307.9;;;;-81
2022/05/16 06:08:57;;;;;;;;;;;;;;;20.71;45.25391;101316;;;;-82
2022/05/16 06:13:58;;;;;;;;;;;;;;;21.3;44.47656;101304.7;;;;-80
2022/05/16 06:18:56;;;;;;;;;;;;;;;21.83;43.92285;101301.7;;;;-82
2022/05/16 06:23:56;;;;;;;;;;;;;;;22.24;43.3877;101315.1;;;;-81
2022/05/16 06:28:50;;;;;;;9;3;;;;;;;;;;;;;-82
2022/05/16 06:29:00;;;;;;;;;;;;;;;22.57;42.90234;101320.6;;;;-82
2022/05/16 06:33:56;;;;;;;;;;;;;;;22.85;42.42285;101324.6;;;;-82
2022/05/16 06:38:58;;;;;;;;;;;;;;;23.06;42.27051;101327.2;;;;-82
2022/05/16 06:43:56;;;;;;;;;;;;;;;23.21;42.12402;101333.6;;;;-84
2022/05/16 06:48:56;;;;;;;;;;;;;;;23.49;41.73535;101344.8;;;;-82
2022/05/16 06:53:56;;;;;;;;;;;;;;;23.43;41.65918;101346.4;;;;-84
2022/05/16 06:58:55;;;;;;;9.3;3.2;;;;;;;;;;;;;-81
2022/05/16 06:59:07;;;;;;;;;;;;;;;23.23;41.73242;101338.8;;;;-81
2022/05/16 07:03:56;;;;;;;;;;;;;;;23.04;42.07324;101342.4;;;;-84
2022/05/16 07:08:57;;;;;;;;;;;;;;;22.87;42.30957;101349.3;;;;-81
2022/05/16 07:13:56;;;;;;;;;;;;;;;22.74;42.67773;101347.3;;;;-83
2022/05/16 07:18:58;;;;;;;;;;;;;;;22.62;42.89551;101343.1;;;;-82
2022/05/16 07:23:56;;;;;;;;;;;;;;;22.55;42.99219;101348.5;;;;-82
2022/05/16 07:28:56;;;;;;;;;;;;;;;22.51;43.04688;101344.8;;;;-81
2022/05/16 07:29:05;;;;;;;8.9;3.6;;;;;;;;;;;;;-81
2022/05/16 07:33:58;;;;;;;;;;;;;;;22.49;42.92969;101353.1;;;;-83
2022/05/16 07:39:00;;;;;;;;;;;;;;;22.45;42.83398;101347.8;;;;-83
2022/05/16 07:43:56;;;;;;;;;;;;;;;22.39;43.09277;101348.3;;;;-83
2022/05/16 07:48:59;;;;;;;;;;;;;;;22.31;43.03809;101345.8;;;;-82
2022/05/16 07:53:56;;;;;;;;;;;;;;;22.24;43.16992;101346.7;;;;-83
2022/05/16 07:58:59;;;;;;;;;;;;;;;22.18;43.44043;101346.6;;;;-83
2022/05/16 07:59:09;;;;;;;7.3;3.5;;;;;;;;;;;;;-83
2022/05/16 08:03:56;;;;;;;;;;;;;;;22.18;43.64551;101348.9;;;;-83
2022/05/16 08:13:56;;;;;;;;;;;;;;;22.26;44.0332;101355.8;;;;-83
2022/05/16 08:18:57;;;;;;;;;;;;;;;22.3;43.81934;101354.7;;;;-84
2022/05/16 08:23:56;;;;;;;;;;;;;;;22.38;43.86035;101376;;;;-81
2022/05/16 08:29:01;;;;;;;;;;;;;;;22.48;44.10059;101384.6;;;;-84
2022/05/16 08:29:11;;;;;;;7.9;4.1;;;;;;;;;;;;;-84
2022/05/16 08:34:02;;;;;;;;;;;;;;;22.58;44.07715;101395.8;;;;-82
2022/05/16 08:44:01;;;;;;;;;;;;;;;22.69;44.44336;101397.8;;;;-83
2022/05/16 08:49:00;;;;;;;;;;;;;;;22.74;44.23047;101404.5;;;;-84
2022/05/16 08:54:02;;;;;;;;;;;;;;;22.79;44.4082;101411.7;;;;-84
2022/05/16 08:59:00;;;;;;;;;;;;;;;22.84;44.91797;101415.3;;;;-83
2022/05/16 08:59:16;;;;;;;10.6;4.2;;;;;;;;;;;;;-83
2022/05/16 09:03:58;;;;;;;;;;;;;;;22.93;44.80078;101411;;;;-82
2022/05/16 09:08:58;;;;;;;;;;;;;;;23.09;44.88574;101411;;;;-84
2022/05/16 09:14:03;;;;;;;;;;;;;;;23.3;44.63086;101410.1;;;;-84
2022/05/16 09:19:01;;;;;;;;;;;;;;;23.52;44.41016;101410.7;;;;-81
2022/05/16 09:24:00;;;;;;;;;;;;;;;23.72;44.34961;101416.5;;;;-83
2022/05/16 09:29:00;;;;;;;;;;;;;;;23.82;43.91016;101419.2;;;;-84
2022/05/16 09:29:16;;;;;;;10.9;4.4;;;;;;;;;;;;;-84
2022/05/16 09:34:00;;;;;;;;;;;;;;;23.96;43.86621;101418.7;;;;-82
2022/05/16 09:38:57;;;;;;;;;;;;;;;24.14;43.50293;101419;;;;-83
2022/05/16 09:44:00;;;;;;;;;;;;;;;24.5;43.25;101407.7;;;;-81
2022/05/16 09:49:05;;;;;;;;;;;;;;;25.11;42.35938;101417;;;;-83
2022/05/16 09:53:57;;;;;;;;;;;;;;;25.74;41.27148;101423.3;;;;-84
2022/05/16 09:59:00;;;;;;;;;;;;;;;26.23;41.4209;101449.5;;;;-82
2022/05/16 09:59:13;;;;;;;6.7;3.6;;;;;;;;;;;;;-82
2022/05/16 10:04:18;;;;;;;;;;;;;;;26.75;40.43555;101448.2;;;;-82
2022/05/16 10:08:56;;;;;;;;;;;;;;;26.38;40.06641;101460.7;;;;-76
2022/05/16 10:13:57;;;;;;;;;;;;;;;25.95;40.73535;101473;;;;-78
2022/05/16 10:18:58;;;;;;;;;;;;;;;25.55;42.21582;101477.2;;;;-78
2022/05/16 10:23:58;;;;;;;;;;;;;;;25.38;43.04492;101492.1;;;;-79
2022/05/16 10:29:01;;;;;;;;;;;;;;;25.3;43.0498;101489.2;;;;-77
2022/05/16 10:29:16;;;;;;;11.3;4.2;;;;;;;;;;;;;-77
2022/05/16 10:34:01;;;;;;;;;;;;;;;25.6;43.1582;101504.5;;;;-79
2022/05/16 10:39:00;;;;;;;;;;;;;;;25.6;42.82227;101515.1;;;;-80
2022/05/16 10:44:08;;;;;;;;;;;;;;;25.87;42.86035;101515.2;;;;-81
2022/05/16 10:49:06;;;;;;;;;;;;;;;25.79;41.58984;101531.2;;;;-79
2022/05/16 10:54:00;;;;;;;;;;;;;;;26.18;41.55664;101536.2;;;;-86
2022/05/16 10:59:01;;;;;;;;;;;;;;;27.14;40.59863;101538.1;;;;-84
2022/05/16 10:59:24;;;;;;;8.6;3.5;;;;;;;;;;;;;-82
2022/05/16 11:04:07;;;;;;;;;;;;;;;27.79;40.12207;101537.9;;;;-82
2022/05/16 11:09:04;;;;;;;;;;;;;;;28.17;39.73633;101524.2;;;;-82
2022/05/16 11:14:04;;;;;;;;;;;;;;;28.38;39.80078;101520.9;;;;-83
2022/05/16 11:19:02;;;;;;;;;;;;;;;28.42;39.16309;101529.6;;;;-83
2022/05/16 11:24:02;;;;;;;;;;;;;;;28.31;39.03711;101541.9;;;;-83
2022/05/16 11:29:21;;;;;;;;;;;;;;;27.99;39.45215;101553;;;;-85
2022/05/16 11:29:36;;;;;;;8.9;2.5;;;;;;;;;;;;;-85
2022/05/16 11:33:58;;;;;;;;;;;;;;;27.52;40.3418;101559.6;;;;-82
2022/05/16 11:39:14;;;;;;;;;;;;;;;27.04;40.96094;101554.9;;;;-84
2022/05/16 11:44:03;;;;;;;;;;;;;;;26.71;41.75488;101575.3;;;;-83
2022/05/16 11:49:14;;;;;;;;;;;;;;;26.36;43.37109;101567.8;;;;-82
2022/05/16 11:54:00;;;;;;;;;;;;;;;26.27;43.79102;101559.8;;;;-83
2022/05/16 12:04:07;;;;;;;;;;;;;;;26.33;43.78418;101568.2;;;;-84
2022/05/16 12:09:15;;;;;;;;;;;;;;;26.28;43.91895;101585.7;;;;-83
2022/05/16 12:14:15;;;;;;;;;;;;;;;26.1;44.46973;101591.5;;;;-85
2022/05/16 12:19:10;;;;;;;;;;;;;;;25.75;45.32617;101595.1;;;;-83
2022/05/16 12:24:04;;;;;;;;;;;;;;;25.45;45.89648;101602.8;;;;-85
2022/05/16 12:29:09;;;;;;;;;;;;;;;25.15;46.49121;101607.1;;;;-84
2022/05/16 12:29:41;;;;;;;14.8;7.4;;;;;;;;;;;;;-83
2022/05/16 12:33:56;;;;;;;;;;;;;;;24.82;46.52637;101622.5;;;;-84
2022/05/16 12:44:11;;;;;;;;;;;;;;;22.01;54.76172;101632.3;;;;-81
2022/05/16 12:49:11;;;;;;;;;;;;;;;22.13;53.27441;101639.9;;;;-84
2022/05/16 12:54:11;;;;;;;;;;;;;;;22.47;51.83594;101653.8;;;;-83
2022/05/16 12:59:06;;;;;;;;;;;;;;;22.43;51.0752;101656.2;;;;-83
2022/05/16 12:59:51;;;;;;;16.7;8.2;;;;;;;;;;;;;-83
2022/05/16 13:04:05;;;;;;;;;;;;;;;22.28;50.77246;101664.5;;;;-83
2022/05/16 13:09:02;;;;;;;;;;;;;;;22.09;50.66992;101660.7;;;;-82
2022/05/16 13:14:19;;;;;;;;;;;;;;;21.95;50.32031;101657.3;;;;-86
2022/05/16 13:19:06;;;;;;;;;;;;;;;21.78;50.57715;101659.5;;;;-83
2022/05/16 13:23:57;;;;;;;;;;;;;;;21.65;50.89453;101656.6;;;;-85
2022/05/16 13:29:38;;;;;;;17.7;8.2;;;;;;;;;;;;;-83
2022/05/16 13:33:59;;;;;;;;;;;;;;;21.62;50.82227;101659.6;;;;-83
2022/05/16 13:39:00;;;;;;;;;;;;;;;21.56;52.21191;101658.6;;;;-84
2022/05/16 13:44:02;;;;;;;;;;;;;;;21.62;52.69922;101663.8;;;;-86
2022/05/16 13:49:08;;;;;;;;;;;;;;;21.72;52.6543;101670.8;;;;-83
2022/05/16 13:54:07;;;;;;;;;;;;;;;21.94;52.3252;101678.3;;;;-84
2022/05/16 13:59:04;;;;;;;;;;;;;;;22.22;51.78516;101687.3;;;;-82
2022/05/16 13:59:41;;;;;;;16.4;6.8;;;;;;;;;;;;;-83
2022/05/16 14:04:00;;;;;;;;;;;;;;;22.44;51.15625;101684.6;;;;-83
2022/05/16 14:09:03;;;;;;;;;;;;;;;22.56;51.08984;101693.6;;;;-75
2022/05/16 14:13:57;;;;;;;;;;;;;;;22.64;50.69727;101696.1;;;;-76
2022/05/16 14:19:03;;;;;;;;;;;;;;;22.83;50.13379;101711;;;;-75
2022/05/16 14:24:12;;;;;;;;;;;;;;;22.97;49.97656;101705.9;;;;-75
2022/05/16 14:28:59;;;;;;;;;;;;;;;23.19;49.8291;101702.6;;;;-75
2022/05/16 14:29:43;;;;;;;10.6;4.8;;;;;;;;;;;;;-77
2022/05/16 14:34:02;;;;;;;;;;;;;;;23.33;49.24707;101721.8;;;;-75
2022/05/16 14:38:58;;;;;;;;;;;;;;;23.28;49.08008;101706.5;;;;-77
2022/05/16 14:44:09;;;;;;;;;;;;;;;23.29;48.98926;101730.7;;;;-76
2022/05/16 14:48:59;;;;;;;;;;;;;;;23.3;48.81738;101729.7;;;;-77
2022/05/16 14:53:58;;;;;;;;;;;;;;;23.21;49.02637;101733.4;;;;-77
2022/05/16 14:58:58;;;;;;;;;;;;;;;23.13;49.01855;101727;;;;-78
2022/05/16 14:59:46;;;;;;;10.5;3.6;;;;;;;;;;;;;-78
2022/05/16 15:04:08;;;;;;;;;;;;;;;23.04;49.00879;101727.5;;;;-77
2022/05/16 15:09:00;;;;;;;;;;;;;;;22.95;49.02148;101731.8;;;;-76
2022/05/16 15:13:56;;;;;;;;;;;;;;;22.82;49.17871;101730.2;;;;-77
2022/05/16 15:18:57;;;;;;;;;;;;;;;22.69;49.33789;101736;;;;-76
2022/05/16 15:23:56;;;;;;;;;;;;;;;22.58;49.47461;101734.7;;;;-76
2022/05/16 15:28:59;;;;;;;;;;;;;;;22.51;49.375;101738;;;;-77
2022/05/16 15:29:49;;;;;;;8.9;3;;;;;;;;;;;;;-76
2022/05/16 15:34:04;;;;;;;;;;;;;;;22.48;49.33691;101740;;;;-76
2022/05/16 15:38:59;;;;;;;;;;;;;;;22.46;49.32422;101744;;;;-76
2022/05/16 15:43:57;;;;;;;;;;;;;;;22.39;49.30469;101751.9;;;;-78
2022/05/16 15:48:57;;;;;;;;;;;;;;;22.28;49.56738;101747.9;;;;-77
2022/05/16 15:53:59;;;;;;;;;;;;;;;22.19;49.69531;101750.4;;;;-77
2022/05/16 15:58:56;;;;;;;;;;;;;;;22.14;49.67773;101750.3;;;;-77
2022/05/16 15:59:54;;;;;;;8.9;3.1;;;;;;;;;;;;;-76
2022/05/16 16:09:01;;;;;;;;;;;;;;;22.19;49.87891;101741;;;;-77
2022/05/16 16:19:00;;;;;;;;;;;;;;;22.23;49.79004;101748.2;;;;-77
2022/05/16 16:23:56;;;;;;;;;;;;;;;22.1;49.97168;101749.2;;;;-76
2022/05/16 16:28:57;;;;;;;;;;;;;;;22.05;50.0918;101744.9;;;;-82
2022/05/16 16:29:55;;;;;;;6.7;2.6;;;;;;;;;;;;;-83
2022/05/16 16:33:57;;;;;;;;;;;;;;;21.98;50.22168;101755;;;;-82
2022/05/16 16:38:59;;;;;;;;;;;;;;;21.88;50.57617;101757.3;;;;-83
2022/05/16 16:43:57;;;;;;;;;;;;;;;21.74;50.67578;101755.8;;;;-83
2022/05/16 16:48:58;;;;;;;;;;;;;;;21.67;50.64453;101761.6;;;;-82
2022/05/16 16:59:02;;;;;;;;;;;;;;;21.37;51.28516;101759.9;;;;-83
2022/05/16 16:59:59;;;;;;;9.4;2.8;;;;;;;;;;;;;-83
2022/05/16 17:04:04;;;;;;;;;;;;;;;21.25;51.16895;101766.3;;;;-82
2022/05/16 17:09:02;;;;;;;;;;;;;;;21.14;51.13477;101770.8;;;;-82
2022/05/16 17:14:02;;;;;;;;;;;;;;;21.01;51.17676;101768.9;;;;-84
2022/05/16 17:18:59;;;;;;;;;;;;;;;20.91;51.37012;101770.7;;;;-83
2022/05/16 17:23:56;;;;;;;;;;;;;;;20.82;51.51953;101770.5;;;;-82
2022/05/16 17:28:56;;;;;;;;;;;;;;;20.77;51.74316;101773.2;;;;-83
2022/05/16 17:30:01;;;;;;;10;3.2;;;;;;;;;;;;;-82
2022/05/16 17:33:56;;;;;;;;;;;;;;;20.78;51.60547;101779.2;;;;-82
2022/05/16 17:38:59;;;;;;;;;;;;;;;20.79;51.80273;101784.6;;;;-85
2022/05/16 17:43:56;;;;;;;;;;;;;;;20.79;51.96191;101790.6;;;;-83
2022/05/16 17:48:57;;;;;;;;;;;;;;;20.76;52.02637;101786.2;;;;-84
2022/05/16 17:53:57;;;;;;;;;;;;;;;20.72;51.98828;101785.5;;;;-83
2022/05/16 17:58:59;;;;;;;;;;;;;;;20.69;51.75684;101797.1;;;;-83
2022/05/16 18:00:05;;;;;;;8.5;2.8;;;;;;;;;;;;;-84
2022/05/16 18:03:56;;;;;;;;;;;;;;;20.64;51.66016;101798.9;;;;-84
2022/05/16 18:08:56;;;;;;;;;;;;;;;20.6;51.4375;101798.1;;;;-82
2022/05/16 18:13:57;;;;;;;;;;;;;;;20.53;51.81836;101799;;;;-83
2022/05/16 18:18:56;;;;;;;;;;;;;;;20.46;51.70703;101805.5;;;;-84
2022/05/16 18:23:59;;;;;;;;;;;;;;;20.44;51.31738;101812.1;;;;-83
2022/05/16 18:28:57;;;;;;;;;;;;;;;20.42;51.49609;101813.1;;;;-83
2022/05/16 18:30:08;;;;;;;10;2.5;;;;;;;;;;;;;-83
2022/05/16 18:33:58;;;;;;;;;;;;;;;20.35;51.61328;101807.6;;;;-84
2022/05/16 18:38:59;;;;;;;;;;;;;;;20.25;51.46484;101814.6;;;;-83
2022/05/16 18:53:59;;;;;;;;;;;;;;;19.82;51.13086;101841;;;;-81
2022/05/16 18:58:59;;;;;;;;;;;;;;;19.61;51.94922;101845.3;;;;-83
2022/05/16 19:00:13;;;;;;;8.2;2.4;;;;;;;;;;;;;-82
2022/05/16 19:04:00;;;;;;;;;;;;;;;19.43;52.05371;101853.5;;;;-84
2022/05/16 19:09:02;;;;;;;;;;;;;;;19.22;53.00879;101852.5;;;;-82
2022/05/16 19:14:00;;;;;;;;;;;;;;;19.03;53.13379;101856.9;;;;-82
2022/05/16 19:19:00;;;;;;;;;;;;;;;18.85;53.95313;101860.3;;;;-81
2022/05/16 19:24:03;;;;;;;;;;;;;;;18.68;54.11426;101871.4;;;;-83
2022/05/16 19:33:56;;;;;;;;;;;;;;;18.36;54.67676;101881;;;;-82
2022/05/16 19:39:00;;;;;;;;;;;;;;;18.2;55.11035;101889.5;;;;-82
2022/05/16 19:43:56;;;;;;;;;;;;;;;18.01;55.48438;101893.8;;;;-81
2022/05/16 19:48:56;;;;;;;;;;;;;;;17.88;55.7627;101896.9;;;;-82
2022/05/16 19:53:57;;;;;;;;;;;;;;;17.77;56.04297;101901.4;;;;-84
2022/05/16 19:58:56;;;;;;;;;;;;;;;17.64;56.21875;101909.6;;;;-83
2022/05/16 20:00:18;;;;;;;10.8;2.5;;;;;;;;;;;;;-82
2022/05/16 20:03:56;;;;;;;;;;;;;;;17.5;56.7002;101915;;;;-83
2022/05/16 20:09:06;;;;;;;;;;;;;;;17.39;56.83301;101923.3;;;;-82
2022/05/16 20:13:56;;;;;;;;;;;;;;;17.27;57.10059;101928.3;;;;-82
2022/05/16 20:18:56;;;;;;;;;;;;;;;17.14;57.17285;101927;;;;-83
2022/05/16 20:29:01;;;;;;;;;;;;;;;16.91;57.68652;101930.6;;;;-82
2022/05/16 20:30:31;;;;;;;8.8;2.4;;;;;;;;;;;;;-83
2022/05/16 20:34:05;;;;;;;;;;;;;;;16.8;57.90918;101934.9;;;;-84
2022/05/16 20:39:00;;;;;;;;;;;;;;;16.67;58.40137;101936.5;;;;-82
2022/05/16 20:43:56;;;;;;;;;;;;;;;16.57;57.99414;101937.7;;;;-83
2022/05/16 20:48:56;;;;;;;;;;;;;;;16.48;58.55664;101938.2;;;;-81
2022/05/16 20:53:58;;;;;;;;;;;;;;;16.39;58.56641;101943.8;;;;-81
2022/05/16 20:58:57;;;;;;;;;;;;;;;16.3;58.3418;101939.6;;;;-83
2022/05/16 21:00:26;;;;;;;8.6;2.4;;;;;;;;;;;;;-82
2022/05/16 21:03:56;;;;;;;;;;;;;;;16.2;58.66602;101940.9;;;;-77
2022/05/16 21:08:56;;;;;;;;;;;;;;;16.11;58.62109;101945.7;;;;-81
2022/05/16 21:13:56;;;;;;;;;;;;;;;16.07;58.87402;101945.8;;;;-82
2022/05/16 21:18:57;;;;;;;;;;;;;;;16.01;58.85547;101946.1;;;;-82
2022/05/16 21:23:56;;;;;;;;;;;;;;;15.93;58.84473;101944.7;;;;-81
2022/05/16 21:28:57;;;;;;;;;;;;;;;15.87;58.79004;101941.5;;;;-83
2022/05/16 21:30:23;;;;;;;10.1;2.5;;;;;;;;;;;;;-82
2022/05/16 21:33:56;;;;;;;;;;;;;;;15.78;58.73438;101941.3;;;;-83
2022/05/16 21:38:56;;;;;;;;;;;;;;;15.73;59.3252;101946.3;;;;-83
2022/05/16 21:49:00;;;;;;;;;;;;;;;15.6;59.65723;101950;;;;-82
2022/05/16 21:53:56;;;;;;;;;;;;;;;15.55;59.7627;101948.3;;;;-83
2022/05/16 21:58:57;;;;;;;;;;;;;;;15.5;59.40625;101948.8;;;;-81
2022/05/16 22:00:35;;;;;;;8.1;2.2;;;;;;;;;;;;;-82
2022/05/16 22:03:58;;;;;;;;;;;;;;;15.42;59.42969;101949;;;;-82
2022/05/16 22:09:01;;;;;;;;;;;;;;;15.37;60.01953;101950.1;;;;-82
2022/05/16 22:13:56;;;;;;;;;;;;;;;15.35;59.78027;101946.8;;;;-81
2022/05/16 22:19:05;;;;;;;;;;;;;;;15.29;59.43359;101946;;;;-83
2022/05/16 22:23:56;;;;;;;;;;;;;;;15.24;59.60742;101949.5;;;;-82
2022/05/16 22:28:56;;;;;;;;;;;;;;;15.18;59.62207;101952.5;;;;-82
2022/05/16 22:30:25;;;;;;;6;1.8;;;;;;;;;;;;;-84
2022/05/16 22:33:56;;;;;;;;;;;;;;;15.11;59.73535;101964.6;;;;-81
2022/05/16 22:38:56;;;;;;;;;;;;;;;15.08;59.75586;101965.2;;;;-83
2022/05/16 22:43:57;;;;;;;;;;;;;;;15.04;59.96289;101965.5;;;;-83
2022/05/16 22:48:56;;;;;;;;;;;;;;;14.97;59.83008;101966.7;;;;-83
2022/05/16 22:53:58;;;;;;;;;;;;;;;14.93;60.64453;101970.7;;;;-83
2022/05/16 22:58:57;;;;;;;;;;;;;;;14.9;60.37109;101970.6;;;;-84
2022/05/16 23:00:27;;;;;;;6;2.2;;;;;;;;;;;;;-83
2022/05/16 23:03:56;;;;;;;;;;;;;;;14.85;60.49805;101978.7;;;;-81
2022/05/16 23:08:56;;;;;;;;;;;;;;;14.81;60.55078;101978.7;;;;-82
2022/05/16 23:13:57;;;;;;;;;;;;;;;14.78;60.73633;101984.6;;;;-82
2022/05/16 23:18:56;;;;;;;;;;;;;;;14.75;60.90137;101985.4;;;;-83
2022/05/16 23:23:58;;;;;;;;;;;;;;;14.71;60.8623;101992.2;;;;-82
2022/05/16 23:28:56;;;;;;;;;;;;;;;14.67;60.86719;101998.9;;;;-82
2022/05/16 23:30:28;;;;;;;6.3;1.9;;;;;;;;;;;;;-82
2022/05/16 23:33:57;;;;;;;;;;;;;;;14.63;60.94141;102007.2;;;;-81
2022/05/16 23:38:57;;;;;;;;;;;;;;;14.6;60.88086;102008.2;;;;-80
2022/05/16 23:43:56;;;;;;;;;;;;;;;14.57;60.91016;102004.3;;;;-82
2022/05/16 23:48:56;;;;;;;;;;;;;;;14.54;60.89453;102008.4;;;;-82
2022/05/16 23:54:08;;;;;;;;;;;;;;;14.49;60.97754;102005.9;;;;-83
2022/05/16 23:58:56;;;;;;;;;;;;;;;14.45;61.30859;102007.9;;;;-83
